KWMC/WMC METAR and TAF weather

Enter ICAO airport designator
Station Type Date Time Source
KWMC METAR 2019/12/14 16:56 UTC NOAA

KWMC 141656Z AUTO 31004KT 10SM SCT047 SCT055 02/M03 A2999 RMK AO2 SLP156 T00171033


Station Type Date Time Source
KWMC Decoded METAR 2019/12/14 16:56 UTC NOAA

WINNEMUCCA MUNICIPAL AIRPORT, NV, United States (KWMC) 40-54N 117-48W 1310M
Dec 14, 2019 - 11:56 AM EST / 2019.12.14 1656 UTC
Wind: from the NW (310 degrees) at 5 MPH (4 KT):0
Visibility: 10 mile(s):0
Sky conditions: partly cloudy
Temperature: 35.1 F (1.7 C)
Dew Point: 26.1 F (-3.3 C)
Relative Humidity: 69%
Pressure (altimeter): 29.99 in. Hg (1015 hPa)
ob: KWMC 141656Z AUTO 31004KT 10SM SCT047 SCT055 02/M03 A2999 RMK AO2 SLP156 T00171033
cycle: 17

Station Type Date Time Source
KWMC TAF 2019/12/14 12:36 UTC NOAA

TAF KWMC 141133Z 1412/1512 27008G15KT P6SM VCSH SCT025 OVC060
FM141300 28008KT P6SM BKN050
FM141700 31008KT P6SM SCT080
FM150400 VRB04KT P6SM BKN180

Example: see airport list